createdAt,value
2017-10-20T00:00:17.441Z,0
2017-10-20T00:01:17.090Z,0
2017-10-20T00:02:17.050Z,0
2017-10-20T00:03:17.038Z,0
2017-10-20T00:04:17.339Z,0
2017-10-20T00:05:17.309Z,0
2017-10-20T00:06:17.310Z,0
2017-10-20T00:07:17.268Z,0
2017-10-20T00:08:17.252Z,0
2017-10-20T00:09:16.909Z,0
2017-10-20T00:10:17.228Z,0
2017-10-20T00:11:17.190Z,0
2017-10-20T00:12:17.179Z,0
2017-10-20T00:13:17.154Z,0
2017-10-20T00:14:17.119Z,0
2017-10-20T00:15:17.102Z,0
2017-10-20T00:16:17.079Z,0
2017-10-20T00:17:17.063Z,0
2017-10-20T00:18:17.388Z,0
2017-10-20T00:19:17.016Z,0
2017-10-20T00:20:16.384Z,0
2017-10-20T00:21:17.002Z,0
2017-10-20T00:22:16.617Z,0
2017-10-20T00:23:16.928Z,0
2017-10-20T00:24:16.593Z,0
2017-10-20T00:25:16.891Z,0
2017-10-20T00:26:16.857Z,0
2017-10-20T00:27:16.840Z,0
2017-10-20T00:28:16.817Z,0
2017-10-20T00:29:16.790Z,0
2017-10-20T00:30:16.790Z,0
2017-10-20T00:31:16.440Z,0
2017-10-20T00:32:16.726Z,0
2017-10-20T00:33:16.409Z,0
2017-10-20T00:34:16.689Z,0
2017-10-20T00:35:16.343Z,0
2017-10-20T00:36:16.642Z,0
2017-10-20T00:37:16.622Z,0
2017-10-20T00:38:16.616Z,0
2017-10-20T00:39:16.589Z,0
2017-10-20T00:40:16.559Z,0
2017-10-20T00:41:16.216Z,0
2017-10-20T00:42:16.516Z,0
2017-10-20T00:43:16.190Z,0
2017-10-20T00:44:16.482Z,0
2017-10-20T00:45:16.457Z,0
2017-10-20T00:46:16.453Z,0
2017-10-20T00:47:16.415Z,0
2017-10-20T00:48:16.064Z,0
2017-10-20T00:49:16.376Z,0
2017-10-20T00:50:16.345Z,0
2017-10-20T00:51:16.322Z,0
2017-10-20T00:52:16.285Z,0
2017-10-20T00:53:16.265Z,0
2017-10-20T00:54:16.257Z,0
2017-10-20T00:55:16.258Z,0
2017-10-20T00:56:16.213Z,0
2017-10-20T00:57:16.187Z,0
2017-10-20T00:58:16.183Z,0
2017-10-20T00:59:16.138Z,0
2017-10-20T01:00:16.115Z,0
2017-10-20T01:01:16.104Z,0
2017-10-20T01:02:16.066Z,0
2017-10-20T01:03:16.047Z,0
2017-10-20T01:04:16.027Z,0
2017-10-20T01:05:15.696Z,0
2017-10-20T01:06:15.996Z,0
2017-10-20T01:07:15.984Z,0
2017-10-20T01:08:15.943Z,0
2017-10-20T01:09:15.921Z,0
2017-10-20T01:10:15.901Z,0
2017-10-20T01:11:15.899Z,0
2017-10-20T01:12:15.856Z,0
2017-10-20T01:13:15.836Z,0
2017-10-20T01:14:15.495Z,0
2017-10-20T01:15:15.796Z,0
2017-10-20T01:16:15.776Z,0
2017-10-20T01:17:15.767Z,0
2017-10-20T01:18:15.731Z,0
2017-10-20T01:19:15.705Z,0
2017-10-20T01:20:15.714Z,0
2017-10-20T01:21:15.661Z,0
2017-10-20T01:22:15.332Z,0
2017-10-20T01:23:15.622Z,0
2017-10-20T01:24:15.601Z,0
2017-10-20T01:25:15.568Z,0
2017-10-20T01:26:15.550Z,0
2017-10-20T01:27:15.524Z,0
2017-10-20T01:28:15.513Z,0
2017-10-20T01:29:15.485Z,0
2017-10-20T01:30:15.469Z,0
2017-10-20T01:31:15.131Z,0
2017-10-20T01:32:15.108Z,0
2017-10-20T01:33:15.397Z,0
2017-10-20T01:34:15.379Z,0
2017-10-20T01:35:15.358Z,0
2017-10-20T01:36:15.325Z,0
2017-10-20T01:37:15.331Z,0
2017-10-20T01:38:15.293Z,0
2017-10-20T01:39:15.289Z,0
2017-10-20T01:40:15.274Z,0
2017-10-20T01:41:15.233Z,0
2017-10-20T01:42:15.201Z,0
2017-10-20T01:43:15.187Z,0
2017-10-20T01:44:15.169Z,0
2017-10-20T01:45:15.138Z,0
2017-10-20T01:46:15.115Z,0
2017-10-20T01:47:15.096Z,0
2017-10-20T01:48:14.431Z,0
2017-10-20T01:49:14.736Z,0
2017-10-20T01:50:15.048Z,0
2017-10-20T01:51:15.006Z,0
2017-10-20T01:52:14.986Z,0
2017-10-20T01:53:14.960Z,0
2017-10-20T01:54:14.618Z,0
2017-10-20T01:55:14.920Z,0
2017-10-20T01:56:14.577Z,0
2017-10-20T01:57:14.866Z,0
2017-10-20T01:58:14.536Z,0
2017-10-20T01:59:14.511Z,0
2017-10-20T02:00:14.840Z,0
2017-10-20T02:01:14.781Z,0
2017-10-20T02:02:14.765Z,0
2017-10-20T02:03:14.747Z,0
2017-10-20T02:04:14.737Z,0
2017-10-20T02:05:14.713Z,0
2017-10-20T02:06:15.883Z,0
2017-10-20T02:07:14.665Z,0
2017-10-20T02:08:14.922Z,0
2017-10-20T02:09:14.299Z,0
2017-10-20T02:10:14.594Z,0
2017-10-20T02:11:14.253Z,0
2017-10-20T02:12:14.543Z,0
2017-10-20T02:13:14.545Z,0
2017-10-20T02:14:14.503Z,0
2017-10-20T02:15:14.484Z,0
2017-10-20T02:16:14.456Z,0
2017-10-20T02:17:14.126Z,0
2017-10-20T02:18:14.419Z,0
2017-10-20T02:19:14.393Z,0
2017-10-20T02:20:14.373Z,0
2017-10-20T02:21:14.353Z,0
2017-10-20T02:22:14.355Z,0
2017-10-20T02:23:14.314Z,0
2017-10-20T02:24:14.283Z,0
2017-10-20T02:25:14.278Z,0
2017-10-20T02:26:14.240Z,0
2017-10-20T02:27:14.223Z,0
2017-10-20T02:28:14.194Z,0
2017-10-20T02:29:14.187Z,0
2017-10-20T02:30:14.162Z,0
2017-10-20T02:31:14.148Z,0
2017-10-20T02:32:14.111Z,0
2017-10-20T02:33:14.092Z,0
2017-10-20T02:34:14.075Z,0
2017-10-20T02:35:14.052Z,0
2017-10-20T02:36:14.033Z,0
2017-10-20T02:37:13.997Z,0
2017-10-20T02:38:13.980Z,0
2017-10-20T02:39:13.954Z,0
2017-10-20T02:40:13.939Z,0
2017-10-20T02:41:13.936Z,0
2017-10-20T02:42:13.575Z,0
2017-10-20T02:43:13.572Z,0
2017-10-20T02:44:13.851Z,0
2017-10-20T02:45:13.832Z,0
2017-10-20T02:46:13.810Z,0
2017-10-20T02:47:13.785Z,0
2017-10-20T02:48:13.765Z,0
2017-10-20T02:49:13.738Z,0
2017-10-20T02:50:13.727Z,0
2017-10-20T02:51:13.696Z,0
2017-10-20T02:52:13.359Z,0
2017-10-20T02:53:13.661Z,0
2017-10-20T02:54:13.635Z,0
2017-10-20T02:55:13.612Z,0
2017-10-20T02:56:13.616Z,0
2017-10-20T02:57:13.571Z,0
2017-10-20T02:58:13.550Z,0
2017-10-20T02:59:13.525Z,0
2017-10-20T03:00:13.509Z,0
2017-10-20T03:01:13.491Z,0
2017-10-20T03:02:13.457Z,0
2017-10-20T03:03:13.453Z,0
2017-10-20T03:04:13.412Z,0
2017-10-20T03:05:13.401Z,0
2017-10-20T03:06:13.368Z,0
2017-10-20T03:07:13.357Z,0
2017-10-20T03:08:13.016Z,0
2017-10-20T03:09:13.306Z,0
2017-10-20T03:10:13.293Z,0
2017-10-20T03:11:13.271Z,0
2017-10-20T03:12:13.246Z,0
2017-10-20T03:13:13.225Z,0
2017-10-20T03:14:13.196Z,0
2017-10-20T03:15:13.178Z,0
2017-10-20T03:16:12.844Z,0
2017-10-20T03:17:13.123Z,0
2017-10-20T03:18:13.115Z,0
2017-10-20T03:19:13.088Z,0
2017-10-20T03:20:13.060Z,0
2017-10-20T03:21:13.030Z,0
2017-10-20T03:22:13.031Z,0
2017-10-20T03:23:13.003Z,0
2017-10-20T03:24:12.994Z,0
2017-10-20T03:25:12.958Z,0
2017-10-20T03:26:12.931Z,0
2017-10-20T03:27:12.592Z,0
2017-10-20T03:28:12.919Z,0
2017-10-20T03:29:12.548Z,0
2017-10-20T03:30:12.858Z,0
2017-10-20T03:31:12.829Z,0
2017-10-20T03:32:12.806Z,0
2017-10-20T03:33:12.470Z,0
2017-10-20T03:34:12.757Z,0
2017-10-20T03:35:12.747Z,0
2017-10-20T03:36:12.713Z,0
2017-10-20T03:37:12.694Z,0
2017-10-20T03:38:12.676Z,0
2017-10-20T03:39:12.012Z,0
2017-10-20T03:40:12.899Z,0
2017-10-20T03:41:12.599Z,0
2017-10-20T03:42:12.582Z,0
2017-10-20T03:43:12.242Z,0
2017-10-20T03:44:12.220Z,0
2017-10-20T03:45:12.517Z,0
2017-10-20T03:46:12.508Z,0
2017-10-20T03:47:12.150Z,0
2017-10-20T03:48:12.450Z,0
2017-10-20T03:49:12.450Z,0
2017-10-20T03:50:12.418Z,0
2017-10-20T03:51:12.395Z,0
2017-10-20T03:52:12.043Z,0
2017-10-20T03:53:12.349Z,0
2017-10-20T03:54:12.313Z,0
2017-10-20T03:55:12.296Z,0
2017-10-20T03:56:12.278Z,0
2017-10-20T03:57:12.259Z,0
2017-10-20T03:58:12.226Z,0
2017-10-20T03:59:12.233Z,0
2017-10-20T04:00:12.190Z,0
2017-10-20T04:01:12.188Z,0
2017-10-20T04:02:12.153Z,0
2017-10-20T04:03:12.124Z,0
2017-10-20T04:04:12.099Z,0
2017-10-20T04:05:12.074Z,0
2017-10-20T04:06:12.060Z,0
2017-10-20T04:07:12.030Z,0
2017-10-20T04:08:12.012Z,0
2017-10-20T04:09:11.988Z,0
2017-10-20T04:10:11.962Z,0
2017-10-20T04:11:11.950Z,0
2017-10-20T04:12:11.926Z,0
2017-10-20T04:13:11.900Z,0
2017-10-20T04:14:11.877Z,0
2017-10-20T04:15:11.860Z,0
2017-10-20T04:16:11.839Z,0
2017-10-20T04:17:11.499Z,0
2017-10-20T04:18:11.792Z,0
2017-10-20T04:19:11.768Z,0
2017-10-20T04:20:11.742Z,0
2017-10-20T04:21:11.402Z,0
2017-10-20T04:22:11.706Z,0
2017-10-20T04:23:11.690Z,0
2017-10-20T04:24:11.656Z,0
2017-10-20T04:25:11.645Z,0
2017-10-20T04:26:11.611Z,0
2017-10-20T04:27:11.584Z,0
2017-10-20T04:28:11.254Z,0
2017-10-20T04:29:11.555Z,0
2017-10-20T04:30:11.519Z,0
2017-10-20T04:31:11.502Z,0
2017-10-20T04:32:11.484Z,0
2017-10-20T04:33:11.455Z,0
2017-10-20T04:34:11.444Z,0
2017-10-20T04:35:11.425Z,0
2017-10-20T04:36:11.388Z,0
2017-10-20T04:37:11.369Z,0
2017-10-20T04:38:11.351Z,0
2017-10-20T04:39:11.320Z,0
2017-10-20T04:40:11.299Z,0
2017-10-20T04:41:11.290Z,0
2017-10-20T04:42:11.266Z,0
2017-10-20T04:43:11.245Z,0
2017-10-20T04:44:11.213Z,0
2017-10-20T04:45:11.231Z,0
2017-10-20T04:46:11.324Z,0
2017-10-20T04:47:11.360Z,0
2017-10-20T04:48:10.807Z,0
2017-10-20T04:49:10.778Z,0
2017-10-20T04:50:11.087Z,0
2017-10-20T04:51:11.059Z,0
2017-10-20T04:52:11.054Z,0
2017-10-20T04:53:11.034Z,0
2017-10-20T04:54:10.986Z,0
2017-10-20T04:55:11.005Z,0
2017-10-20T04:56:10.313Z,0
2017-10-20T04:57:10.926Z,0
2017-10-20T04:58:10.916Z,0
2017-10-20T04:59:10.887Z,0
2017-10-20T05:00:10.862Z,0
2017-10-20T05:01:10.849Z,0
2017-10-20T05:02:10.822Z,0
2017-10-20T05:03:10.809Z,0
2017-10-20T05:04:10.782Z,0
2017-10-20T05:05:10.758Z,0
2017-10-20T05:06:10.725Z,0
2017-10-20T05:07:10.387Z,0
2017-10-20T05:08:10.693Z,0
2017-10-20T05:09:10.668Z,0
2017-10-20T05:10:10.644Z,0
2017-10-20T05:11:10.304Z,0
2017-10-20T05:12:10.591Z,0
2017-10-20T05:13:10.576Z,0
2017-10-20T05:14:10.559Z,0
2017-10-20T05:15:10.547Z,0
2017-10-20T05:16:10.195Z,0
2017-10-20T05:17:10.495Z,0
2017-10-20T05:18:10.496Z,0
2017-10-20T05:19:10.456Z,0
2017-10-20T05:20:10.418Z,0
2017-10-20T05:21:10.417Z,0
2017-10-20T05:22:10.390Z,0
2017-10-20T05:23:10.360Z,0
2017-10-20T05:24:10.698Z,0
2017-10-20T05:25:10.316Z,0
2017-10-20T05:26:10.294Z,0
2017-10-20T05:27:10.269Z,0
2017-10-20T05:28:09.931Z,0
2017-10-20T05:29:10.223Z,0
2017-10-20T05:30:10.206Z,0
2017-10-20T05:31:10.194Z,0
2017-10-20T05:32:10.163Z,0
2017-10-20T05:33:10.138Z,0
2017-10-20T05:34:10.127Z,0
2017-10-20T05:35:10.094Z,0
2017-10-20T05:36:10.077Z,0
2017-10-20T05:37:10.057Z,0
2017-10-20T05:38:10.037Z,0
2017-10-20T05:39:10.009Z,0
2017-10-20T05:40:09.985Z,0
2017-10-20T05:41:09.974Z,0
2017-10-20T05:42:09.706Z,0
2017-10-20T05:43:09.844Z,0
2017-10-20T05:44:09.910Z,4
2017-10-20T05:45:09.876Z,4
2017-10-20T05:46:09.878Z,4
2017-10-20T05:47:09.835Z,4
2017-10-20T05:48:09.808Z,0
2017-10-20T05:49:09.795Z,4
2017-10-20T05:50:09.762Z,4
2017-10-20T05:51:09.770Z,4
2017-10-20T05:52:09.719Z,8
2017-10-20T05:53:09.391Z,8
2017-10-20T05:54:09.680Z,12
2017-10-20T05:55:09.335Z,12
2017-10-20T05:56:09.322Z,12
2017-10-20T05:57:09.309Z,16
2017-10-20T05:58:09.609Z,12
2017-10-20T05:59:09.572Z,16
2017-10-20T06:00:09.561Z,16
2017-10-20T06:01:09.526Z,20
2017-10-20T06:02:09.506Z,20
2017-10-20T06:03:09.504Z,24
2017-10-20T06:04:09.459Z,28
2017-10-20T06:05:09.442Z,28
2017-10-20T06:06:09.414Z,36
2017-10-20T06:07:09.391Z,40
2017-10-20T06:08:09.377Z,44
2017-10-20T06:09:09.346Z,48
2017-10-20T06:10:09.325Z,48
2017-10-20T06:11:09.305Z,48
2017-10-20T06:12:09.283Z,48
2017-10-20T06:13:09.265Z,56
2017-10-20T06:14:09.586Z,60
2017-10-20T06:15:08.893Z,72
2017-10-20T06:16:09.187Z,84
2017-10-20T06:17:09.171Z,108
2017-10-20T06:18:09.150Z,116
2017-10-20T06:19:09.128Z,120
2017-10-20T06:20:09.459Z,132
2017-10-20T06:21:09.082Z,152
2017-10-20T06:22:09.060Z,152
2017-10-20T06:23:08.732Z,168
2017-10-20T06:24:09.017Z,176
2017-10-20T06:25:08.993Z,180
2017-10-20T06:26:08.961Z,188
2017-10-20T06:27:08.634Z,212
2017-10-20T06:28:08.946Z,256
2017-10-20T06:29:08.907Z,300
2017-10-20T06:30:08.891Z,312
2017-10-20T06:31:08.860Z,284
2017-10-20T06:32:08.840Z,244
2017-10-20T06:33:08.496Z,276
2017-10-20T06:34:08.794Z,332
2017-10-20T06:35:08.765Z,364
2017-10-20T06:36:08.749Z,340
2017-10-20T06:37:08.889Z,324
2017-10-20T06:38:08.709Z,304
2017-10-20T06:39:08.670Z,320
2017-10-20T06:40:08.657Z,316
2017-10-20T06:41:08.661Z,288
2017-10-20T06:42:08.614Z,268
2017-10-20T06:43:08.940Z,252
2017-10-20T06:44:08.564Z,236
2017-10-20T06:45:08.897Z,240
2017-10-20T06:46:08.202Z,232
2017-10-20T06:47:08.512Z,220
2017-10-20T06:48:08.478Z,192
2017-10-20T06:49:08.474Z,196
2017-10-20T06:50:08.431Z,212
2017-10-20T06:51:08.412Z,224
2017-10-20T06:52:08.396Z,212
2017-10-20T06:53:08.385Z,212
2017-10-20T06:54:08.348Z,188
2017-10-20T06:55:08.344Z,180
2017-10-20T06:56:08.297Z,180
2017-10-20T06:57:08.307Z,176
2017-10-20T06:58:08.255Z,168
2017-10-20T06:59:08.228Z,164
2017-10-20T07:00:08.214Z,172
2017-10-20T07:01:08.189Z,172
2017-10-20T07:02:08.160Z,164
2017-10-20T07:03:08.148Z,172
2017-10-20T07:04:08.124Z,156
2017-10-20T07:05:08.099Z,164
2017-10-20T07:06:08.073Z,144
2017-10-20T07:07:08.050Z,128
2017-10-20T07:08:08.031Z,136
2017-10-20T07:09:08.005Z,148
2017-10-20T07:10:07.992Z,144
2017-10-20T07:11:07.962Z,164
2017-10-20T07:12:08.298Z,224
2017-10-20T07:13:07.918Z,288
2017-10-20T07:14:07.894Z,308
2017-10-20T07:15:07.870Z,288
2017-10-20T07:16:07.849Z,236
2017-10-20T07:17:07.506Z,204
2017-10-20T07:18:07.830Z,228
2017-10-20T07:19:07.791Z,300
2017-10-20T07:20:07.441Z,300
2017-10-20T07:21:07.760Z,308
2017-10-20T07:22:07.723Z,408
2017-10-20T07:23:07.700Z,480
2017-10-20T07:24:07.689Z,536
2017-10-20T07:25:07.648Z,632
2017-10-20T07:26:07.633Z,716
2017-10-20T07:27:07.599Z,776
2017-10-20T07:28:07.586Z,1060
2017-10-20T07:29:07.559Z,1284
2017-10-20T07:30:07.540Z,1344
2017-10-20T07:31:07.513Z,1344
2017-10-20T07:32:07.490Z,1448
2017-10-20T07:33:07.478Z,1588
2017-10-20T07:34:07.449Z,1644
2017-10-20T07:35:07.442Z,1856
2017-10-20T07:36:07.401Z,1964
2017-10-20T07:37:07.395Z,1900
2017-10-20T07:38:07.360Z,1868
2017-10-20T07:39:07.331Z,1920
2017-10-20T07:40:07.310Z,2072
2017-10-20T07:41:07.318Z,2288
2017-10-20T07:42:07.266Z,2600
2017-10-20T07:43:07.249Z,2760
2017-10-20T07:44:07.221Z,2932
2017-10-20T07:45:07.209Z,3172
2017-10-20T07:46:07.172Z,3460
2017-10-20T07:47:07.183Z,3720
2017-10-20T07:48:07.131Z,3960
2017-10-20T07:49:06.788Z,4104
2017-10-20T07:50:07.096Z,4048
2017-10-20T07:51:07.056Z,4168
2017-10-20T07:52:06.728Z,4296
2017-10-20T07:53:06.700Z,4120
2017-10-20T07:54:07.022Z,3808
2017-10-20T07:55:06.665Z,3552
2017-10-20T07:56:06.967Z,3200
2017-10-20T07:57:06.609Z,3040
2017-10-20T07:58:06.909Z,3072
2017-10-20T07:59:06.895Z,3284
2017-10-20T08:00:06.876Z,3672
2017-10-20T08:01:06.532Z,4180
2017-10-20T08:02:06.840Z,4888
2017-10-20T08:03:06.791Z,5628
2017-10-20T08:04:06.783Z,6096
2017-10-20T08:05:06.761Z,6600
2017-10-20T08:06:06.730Z,6912
2017-10-20T08:07:06.390Z,6808
2017-10-20T08:08:06.382Z,6388
2017-10-20T08:09:06.343Z,6044
2017-10-20T08:10:06.651Z,5740
2017-10-20T08:11:06.632Z,6200
2017-10-20T08:12:06.645Z,6288
2017-10-20T08:13:06.592Z,5796
2017-10-20T08:14:06.557Z,5328
2017-10-20T08:15:06.536Z,4896
2017-10-20T08:16:06.524Z,4440
2017-10-20T08:17:06.485Z,4096
2017-10-20T08:18:06.166Z,4248
2017-10-20T08:19:06.168Z,4616
2017-10-20T08:20:06.433Z,5632
2017-10-20T08:21:06.417Z,6612
2017-10-20T08:22:06.388Z,7796
2017-10-20T08:23:06.038Z,8824
2017-10-20T08:24:06.349Z,8888
2017-10-20T08:25:05.992Z,7964
2017-10-20T08:26:06.295Z,7460
2017-10-20T08:27:06.277Z,7024
2017-10-20T08:28:06.250Z,6608
2017-10-20T08:29:06.240Z,6148
2017-10-20T08:30:06.207Z,5568
2017-10-20T08:31:06.193Z,4652
2017-10-20T08:32:06.195Z,4372
2017-10-20T08:33:05.834Z,4340
2017-10-20T08:34:06.122Z,4204
2017-10-20T08:35:06.097Z,3904
2017-10-20T08:36:06.072Z,3556
2017-10-20T08:37:06.057Z,3140
2017-10-20T08:38:06.029Z,2988
2017-10-20T08:39:06.008Z,3004
2017-10-20T08:40:05.999Z,2944
2017-10-20T08:41:05.972Z,2788
2017-10-20T08:42:05.621Z,2956
2017-10-20T08:43:05.926Z,3680
2017-10-20T08:44:05.910Z,4608
2017-10-20T08:45:05.909Z,4936
2017-10-20T08:46:05.872Z,4848
2017-10-20T08:47:05.858Z,4848
2017-10-20T08:48:05.817Z,4452
2017-10-20T08:49:05.790Z,3788
2017-10-20T08:50:05.774Z,3484
2017-10-20T08:51:05.771Z,3376
2017-10-20T08:52:05.408Z,3344
2017-10-20T08:53:05.382Z,3304
2017-10-20T08:54:06.034Z,3120
2017-10-20T08:55:05.343Z,2932
2017-10-20T08:56:05.648Z,2580
2017-10-20T08:57:05.640Z,2228
2017-10-20T08:58:05.964Z,2004
2017-10-20T08:59:05.598Z,2012
2017-10-20T09:00:05.375Z,2404
2017-10-20T09:01:05.596Z,2720
2017-10-20T09:02:05.521Z,2672
2017-10-20T09:03:05.527Z,2508
2017-10-20T09:04:05.172Z,2524
2017-10-20T09:05:05.471Z,2288
2017-10-20T09:06:05.132Z,2088
2017-10-20T09:07:05.086Z,2128
2017-10-20T09:08:05.419Z,1960
2017-10-20T09:09:05.050Z,1508
2017-10-20T09:10:05.350Z,1224
2017-10-20T09:11:05.349Z,1224
2017-10-20T09:12:05.316Z,1172
2017-10-20T09:13:04.941Z,1260
2017-10-20T09:14:05.264Z,1292
2017-10-20T09:15:05.235Z,1672
2017-10-20T09:16:05.209Z,2020
2017-10-20T09:17:04.865Z,2532
2017-10-20T09:18:05.156Z,3632
2017-10-20T09:19:05.142Z,4804
2017-10-20T09:20:05.150Z,4952
2017-10-20T09:21:04.791Z,4304
2017-10-20T09:22:05.075Z,3076
2017-10-20T09:23:05.057Z,2276
2017-10-20T09:24:05.026Z,1972
2017-10-20T09:25:04.686Z,960
2017-10-20T09:26:04.981Z,1116
2017-10-20T09:27:04.963Z,1004
2017-10-20T09:28:04.953Z,1368
2017-10-20T09:29:04.922Z,1872
2017-10-20T09:30:04.930Z,2080
2017-10-20T09:31:04.555Z,2204
2017-10-20T09:32:04.858Z,2296
2017-10-20T09:33:04.846Z,2516
2017-10-20T09:34:04.837Z,3060
2017-10-20T09:35:04.800Z,3164
2017-10-20T09:36:04.760Z,3492
2017-10-20T09:37:04.743Z,4640
2017-10-20T09:38:04.716Z,5460
2017-10-20T09:39:04.695Z,5888
2017-10-20T09:40:04.672Z,6228
2017-10-20T09:41:04.326Z,5932
2017-10-20T09:42:04.637Z,5296
2017-10-20T09:43:04.608Z,4836
2017-10-20T09:44:04.278Z,4732
2017-10-20T09:45:04.597Z,4444
2017-10-20T09:46:04.537Z,4408
2017-10-20T09:47:04.521Z,4656
2017-10-20T09:48:04.496Z,4744
2017-10-20T09:49:04.478Z,5508
2017-10-20T09:50:04.452Z,5516
2017-10-20T09:51:04.436Z,5444
2017-10-20T09:52:04.410Z,4976
2017-10-20T09:53:04.394Z,4104
2017-10-20T09:54:04.366Z,3560
2017-10-20T09:55:04.356Z,3384
2017-10-20T09:56:04.318Z,3304
2017-10-20T09:57:04.302Z,3508
2017-10-20T09:58:04.284Z,3168
2017-10-20T09:59:04.273Z,3056
2017-10-20T10:00:04.235Z,3800
2017-10-20T10:01:04.408Z,4728
2017-10-20T10:02:04.224Z,5600
2017-10-20T10:03:04.167Z,4560
2017-10-20T10:04:03.831Z,4164
2017-10-20T10:05:03.802Z,3988
2017-10-20T10:06:04.122Z,2856
2017-10-20T10:07:04.078Z,2504
2017-10-20T10:08:04.055Z,2188
2017-10-20T10:09:03.716Z,1252
2017-10-20T10:10:04.014Z,1668
2017-10-20T10:11:03.990Z,2500
2017-10-20T10:12:03.969Z,3124
2017-10-20T10:13:03.948Z,3592
2017-10-20T10:14:03.952Z,4292
2017-10-20T10:15:03.890Z,4408
2017-10-20T10:16:03.881Z,7168
2017-10-20T10:17:03.538Z,9204
2017-10-20T10:18:03.521Z,10468
2017-10-20T10:19:03.813Z,10124
2017-10-20T10:20:03.793Z,10084
2017-10-20T10:21:03.446Z,9544
2017-10-20T10:22:03.755Z,8760
2017-10-20T10:23:03.742Z,8108
2017-10-20T10:24:03.707Z,7596
2017-10-20T10:25:03.357Z,7588
2017-10-20T10:26:03.681Z,7332
2017-10-20T10:27:03.635Z,7644
2017-10-20T10:28:03.618Z,7492
2017-10-20T10:29:03.603Z,7212
2017-10-20T10:30:03.580Z,7700
2017-10-20T10:31:03.550Z,8636
2017-10-20T10:32:03.204Z,9284
2017-10-20T10:33:03.508Z,9464
2017-10-20T10:34:03.524Z,9348
2017-10-20T10:35:03.467Z,9216
2017-10-20T10:36:03.446Z,9132
2017-10-20T10:37:03.430Z,9344
2017-10-20T10:38:03.388Z,9572
2017-10-20T10:39:03.382Z,9172
2017-10-20T10:40:03.703Z,7764
2017-10-20T10:41:03.389Z,6412
2017-10-20T10:42:03.316Z,5620
2017-10-20T10:43:03.322Z,5156
2017-10-20T10:44:03.274Z,5360
2017-10-20T10:45:03.266Z,6368
2017-10-20T10:46:03.572Z,7196
2017-10-20T10:47:03.213Z,7876
2017-10-20T10:48:02.858Z,8752
2017-10-20T10:49:03.157Z,9432
2017-10-20T10:50:03.135Z,9992
2017-10-20T10:51:03.124Z,10204
2017-10-20T10:52:03.106Z,10092
2017-10-20T10:53:03.081Z,9928
2017-10-20T10:54:03.061Z,8676
2017-10-20T10:55:03.053Z,8076
2017-10-20T10:56:03.011Z,7344
2017-10-20T10:57:03.341Z,6708
2017-10-20T10:58:02.975Z,6248
2017-10-20T10:59:02.942Z,6060
2017-10-20T11:00:02.927Z,6132
2017-10-20T11:01:02.902Z,6312
2017-10-20T11:02:02.911Z,6196
2017-10-20T11:03:02.935Z,5996
2017-10-20T11:04:02.903Z,5712
2017-10-20T11:05:02.923Z,5344
2017-10-20T11:06:03.362Z,5056
2017-10-20T11:07:02.775Z,4856
2017-10-20T11:08:02.802Z,4732
2017-10-20T11:09:02.778Z,4316
2017-10-20T11:10:02.724Z,5100
2017-10-20T11:11:02.701Z,5892
2017-10-20T11:12:02.717Z,4556
2017-10-20T11:13:02.656Z,4600
2017-10-20T11:14:02.693Z,4756
2017-10-20T11:15:01.975Z,4888
2017-10-20T11:16:02.572Z,4156
2017-10-20T11:17:02.568Z,4828
2017-10-20T11:18:02.253Z,4460
2017-10-20T11:19:02.210Z,4088
2017-10-20T11:20:02.504Z,4708
2017-10-20T11:21:02.176Z,4972
2017-10-20T11:22:02.460Z,4228
2017-10-20T11:23:02.122Z,5600
2017-10-20T11:24:02.090Z,4276
2017-10-20T11:25:02.396Z,4040
2017-10-20T11:26:02.406Z,4812
2017-10-20T11:27:02.358Z,4476
2017-10-20T11:28:02.346Z,4556
2017-10-20T11:29:02.313Z,3904
2017-10-20T11:30:02.306Z,3948
2017-10-20T11:31:01.952Z,4136
2017-10-20T11:32:02.259Z,4052
2017-10-20T11:33:02.202Z,3816
2017-10-20T11:34:02.133Z,3848
2017-10-20T11:35:02.183Z,3980
2017-10-20T11:36:02.525Z,3916
2017-10-20T11:37:02.125Z,3788
2017-10-20T11:38:02.142Z,3808
2017-10-20T11:39:02.086Z,3808
2017-10-20T11:40:02.056Z,3816
2017-10-20T11:41:02.057Z,3916
2017-10-20T11:42:02.089Z,4168
2017-10-20T11:43:02.016Z,4128
2017-10-20T11:44:01.679Z,4116
2017-10-20T11:45:01.636Z,4156
2017-10-20T11:46:01.932Z,4320
2017-10-20T11:47:01.607Z,4216
2017-10-20T11:48:01.573Z,4916
2017-10-20T11:49:01.874Z,5908
2017-10-20T11:50:01.861Z,6120
2017-10-20T11:51:01.911Z,6376
2017-10-20T11:52:01.798Z,6616
2017-10-20T11:53:02.104Z,5788
2017-10-20T11:54:01.451Z,6980
2017-10-20T11:55:01.769Z,7572
2017-10-20T11:56:01.783Z,6976
2017-10-20T11:57:01.371Z,5500
2017-10-20T11:58:01.677Z,5392
2017-10-20T11:59:01.642Z,6864
2017-10-20T12:00:01.618Z,6448
2017-10-20T12:01:01.636Z,7136
2017-10-20T12:02:01.576Z,8116
2017-10-20T12:03:01.563Z,7020
2017-10-20T12:04:01.543Z,5864
2017-10-20T12:05:01.519Z,6684
2017-10-20T12:06:01.500Z,8632
2017-10-20T12:07:01.468Z,9912
2017-10-20T12:08:01.451Z,11384
2017-10-20T12:09:00.856Z,9576
2017-10-20T12:10:01.415Z,6908
2017-10-20T12:11:01.396Z,5472
2017-10-20T12:12:01.364Z,5224
2017-10-20T12:13:01.387Z,6096
2017-10-20T12:14:01.005Z,4608
2017-10-20T12:15:00.986Z,5548
2017-10-20T12:16:01.285Z,4984
2017-10-20T12:17:01.300Z,4044
2017-10-20T12:18:01.276Z,4568
2017-10-20T12:19:01.220Z,3736
2017-10-20T12:20:01.194Z,3532
2017-10-20T12:21:01.162Z,3444
2017-10-20T12:22:01.154Z,3396
2017-10-20T12:23:01.131Z,3352
2017-10-20T12:24:01.115Z,3328
2017-10-20T12:25:01.088Z,3312
2017-10-20T12:26:00.747Z,3316
2017-10-20T12:27:01.046Z,3324
2017-10-20T12:28:01.039Z,3296
2017-10-20T12:29:01.002Z,3292
2017-10-20T12:30:00.683Z,3304
2017-10-20T12:31:00.958Z,3292
2017-10-20T12:32:00.939Z,3316
2017-10-20T12:33:00.926Z,3440
2017-10-20T12:34:00.898Z,3520
2017-10-20T12:35:00.874Z,4096
2017-10-20T12:36:00.858Z,5232
2017-10-20T12:37:00.832Z,5688
2017-10-20T12:38:00.812Z,5328
2017-10-20T12:39:00.796Z,4720
2017-10-20T12:40:00.767Z,4248
2017-10-20T12:41:00.743Z,3824
2017-10-20T12:42:00.749Z,4328
2017-10-20T12:43:00.699Z,4284
2017-10-20T12:44:00.682Z,3952
2017-10-20T12:45:01.028Z,4752
2017-10-20T12:46:00.634Z,5364
2017-10-20T12:47:00.613Z,6796
2017-10-20T12:48:00.603Z,7604
2017-10-20T12:49:00.588Z,7916
2017-10-20T12:50:00.559Z,7568
2017-10-20T12:51:00.532Z,7092
2017-10-20T12:52:00.508Z,7408
2017-10-20T12:53:00.493Z,7576
2017-10-20T12:54:00.454Z,8288
2017-10-20T12:55:00.461Z,8672
2017-10-20T12:56:00.423Z,8144
2017-10-20T12:56:59.770Z,8332
2017-10-20T12:58:00.382Z,8552
2017-10-20T12:59:00.359Z,7312
2017-10-20T13:00:00.342Z,6744
2017-10-20T13:00:59.991Z,6580
2017-10-20T13:02:00.285Z,6116
2017-10-20T13:03:00.267Z,6704
2017-10-20T13:04:00.263Z,8316
2017-10-20T13:04:59.912Z,7636
2017-10-20T13:06:00.217Z,7284
2017-10-20T13:07:00.193Z,7064
2017-10-20T13:08:00.182Z,7808
2017-10-20T13:09:00.156Z,8040
2017-10-20T13:10:00.131Z,7860
2017-10-20T13:11:00.100Z,7280
2017-10-20T13:12:00.229Z,6980
2017-10-20T13:13:00.055Z,6276
2017-10-20T13:14:00.046Z,5912
2017-10-20T13:15:00.023Z,6152
2017-10-20T13:16:00.014Z,6108
2017-10-20T13:16:59.982Z,5168
2017-10-20T13:17:59.635Z,4368
2017-10-20T13:18:59.790Z,4092
2017-10-20T13:19:59.607Z,4892
2017-10-20T13:20:59.903Z,4912
2017-10-20T13:21:59.867Z,4152
2017-10-20T13:22:59.852Z,3232
2017-10-20T13:23:59.509Z,2628
2017-10-20T13:24:59.804Z,3104
2017-10-20T13:25:59.793Z,3752
2017-10-20T13:26:59.761Z,3608
2017-10-20T13:27:59.745Z,2772
2017-10-20T13:29:00.067Z,3272
2017-10-20T13:29:59.383Z,3648
2017-10-20T13:30:59.687Z,3684
2017-10-20T13:31:59.362Z,3748
2017-10-20T13:32:59.062Z,3700
2017-10-20T13:33:59.609Z,3404
2017-10-20T13:34:59.606Z,4132
2017-10-20T13:35:59.568Z,5376
2017-10-20T13:36:59.555Z,4860
2017-10-20T13:37:59.539Z,3548
2017-10-20T13:38:59.515Z,2508
2017-10-20T13:39:59.505Z,1808
2017-10-20T13:40:59.465Z,1692
2017-10-20T13:41:59.437Z,1980
2017-10-20T13:42:59.421Z,2348
2017-10-20T13:43:59.396Z,2620
2017-10-20T13:44:59.404Z,3028
2017-10-20T13:45:58.718Z,2832
2017-10-20T13:46:59.020Z,2492
2017-10-20T13:47:58.676Z,2276
2017-10-20T13:48:59.297Z,2140
2017-10-20T13:49:59.262Z,2040
2017-10-20T13:50:58.935Z,2116
2017-10-20T13:51:59.236Z,2188
2017-10-20T13:52:58.903Z,1964
2017-10-20T13:53:59.189Z,2028
2017-10-20T13:54:59.166Z,2072
2017-10-20T13:55:58.281Z,2232
2017-10-20T13:56:58.912Z,2200